Time;durP1;ratioP1;P1;durP2;ratioP2;P2;SDS_P1;SDS_P2;PMS_P1;PMS_P2;Temp;Humidity;BMP_temperature;BMP_pressure;BME280_temperature;BME280_humidity;BME280_pressure;Samples;Min_cycle;Max_cycle;Signal;HPM_P1;HPM_P2
2022/10/30 00:03:12;;;;;;;16.60;7.93;;;;;;;14.94;95.48;101663.75;6218918;28;20232;-73
2022/10/30 00:06:33;;;;;;;12.20;7.73;;;;;;;14.96;95.74;101658.16;6224776;28;20225;-73
2022/10/30 00:09:54;;;;;;;9.57;8.00;;;;;;;14.97;95.49;101655.31;6212772;28;20228;-73
2022/10/30 00:13:15;;;;;;;11.47;6.57;;;;;;;14.97;94.95;101657.16;6226308;28;20247;-73
2022/10/30 00:16:38;;;;;;;10.60;6.20;;;;;;;14.91;95.10;101649.63;6225327;28;20224;-72
2022/10/30 00:19:59;;;;;;;10.50;7.00;;;;;;;14.91;95.34;101645.03;6204753;28;20228;-73
2022/10/30 00:23:20;;;;;;;13.90;7.33;;;;;;;14.85;95.72;101642.88;6226600;28;20224;-73
2022/10/30 00:26:40;;;;;;;10.73;6.03;;;;;;;14.85;95.80;101645.59;6226751;28;20228;-73
2022/10/30 00:30:01;;;;;;;10.67;6.97;;;;;;;14.74;96.13;101647.63;6216222;28;20220;-74
2022/10/30 00:33:23;;;;;;;10.13;8.40;;;;;;;14.71;96.32;101648.75;6218695;28;20227;-74
2022/10/30 00:36:44;;;;;;;8.60;6.07;;;;;;;14.67;96.05;101638.31;6227385;28;20344;-72
2022/10/30 00:40:07;;;;;;;13.30;6.33;;;;;;;14.67;96.57;101641.91;6229719;28;20220;-73
2022/10/30 00:43:33;;;;;;;8.30;7.43;;;;;;;14.65;96.32;101641.19;6220745;28;20231;-73
2022/10/30 00:46:54;;;;;;;9.83;8.13;;;;;;;14.66;96.27;101633.91;6218912;28;20224;-73
2022/10/30 00:50:20;;;;;;;8.43;7.57;;;;;;;14.54;96.75;101643.22;6219558;28;20232;-74
2022/10/30 00:53:42;;;;;;;8.57;5.57;;;;;;;14.55;97.14;101634.06;6226845;28;20224;-74
2022/10/30 00:57:07;;;;;;;10.67;7.63;;;;;;;14.56;96.89;101631.19;6215627;28;20228;-73
2022/10/30 01:00:29;;;;;;;7.93;5.53;;;;;;;14.58;97.02;101628.34;6216259;28;20237;-73
2022/10/30 01:03:55;;;;;;;12.20;5.93;;;;;;;14.68;96.17;101627.34;6227496;28;20247;-73
2022/10/30 01:07:17;;;;;;;10.13;7.77;;;;;;;14.74;95.24;101625.91;6222410;28;20251;-74
2022/10/30 01:10:39;;;;;;;8.13;6.40;;;;;;;14.78;94.89;101625.47;6223372;28;20232;-74
2022/10/30 01:14:05;;;;;;;15.33;7.73;;;;;;;14.76;95.11;101623.91;6233619;28;20223;-73
2022/10/30 01:17:41;;;;;;;8.60;5.40;;;;;;;14.73;94.58;101619.63;6214121;28;20271;-74
2022/10/30 01:21:20;;;;;;;12.27;6.60;;;;;;;14.61;95.18;101631.63;6210175;28;20225;-73
2022/10/30 01:24:54;;;;;;;15.23;6.87;;;;;;;14.46;95.57;101627.63;6209088;28;20542;-72
2022/10/30 01:28:32;;;;;;;9.57;6.20;;;;;;;14.43;96.17;101616.22;6220486;28;20349;-73
2022/10/30 01:32:08;;;;;;;14.37;7.43;;;;;;;14.45;95.95;101612.38;6216695;28;20221;-74
2022/10/30 01:35:37;;;;;;;9.97;5.20;;;;;;;14.51;96.03;101610.91;6224557;28;20236;-74
2022/10/30 01:39:02;;;;;;;7.63;6.83;;;;;;;14.38;96.68;101609.34;6202828;28;20227;-73
2022/10/30 01:42:44;;;;;;;9.27;6.50;;;;;;;14.55;96.11;101605.06;6208603;28;20255;-73
2022/10/30 01:46:22;;;;;;;12.17;7.00;;;;;;;14.45;96.26;101604.22;6221671;28;20248;-73
2022/10/30 01:50:02;;;;;;;7.30;6.10;;;;;;;14.52;95.99;101604.50;6213366;28;20224;-73
2022/10/30 01:53:36;;;;;;;9.07;5.60;;;;;;;14.53;96.04;101600.78;6232398;28;20239;-73
2022/10/30 01:57:07;;;;;;;10.37;5.87;;;;;;;14.58;95.04;101596.63;6213666;28;20256;-73
2022/10/30 02:00:32;;;;;;;8.20;5.57;;;;;;;14.40;95.94;101591.09;6231185;28;20243;-74
2022/10/30 02:03:53;;;;;;;14.63;6.93;;;;;;;14.51;95.78;101590.09;6217868;28;20531;-72
2022/10/30 02:07:15;;;;;;;12.33;6.83;;;;;;;14.43;95.37;101589.09;6210868;28;20237;-72
2022/10/30 02:10:43;;;;;;;7.00;5.50;;;;;;;14.56;95.18;101595.09;6213291;28;20824;-73
2022/10/30 02:14:08;;;;;;;10.10;5.67;;;;;;;14.63;94.59;101591.63;6214645;28;20235;-74
2022/10/30 02:17:30;;;;;;;6.30;5.40;;;;;;;14.43;94.59;101586.38;6215445;28;20318;-73
2022/10/30 02:20:52;;;;;;;7.93;4.67;;;;;;;14.49;95.18;101581.22;6227832;28;20247;-73
2022/10/30 02:24:14;;;;;;;8.47;4.80;;;;;;;14.53;94.79;101584.50;6217885;28;20231;-74
2022/10/30 02:27:35;;;;;;;7.73;5.73;;;;;;;14.49;94.88;101592.09;6213738;28;20232;-73
2022/10/30 02:30:56;;;;;;;10.33;4.70;;;;;;;14.35;95.16;101589.81;6216516;28;20319;-73
2022/10/30 02:34:18;;;;;;;9.80;5.00;;;;;;;14.29;95.23;101588.50;6226725;28;20228;-72
2022/10/30 02:37:40;;;;;;;8.60;4.77;;;;;;;14.26;95.22;101588.78;6214500;28;20617;-73
2022/10/30 02:41:01;;;;;;;8.40;6.27;;;;;;;14.18;95.47;101585.06;6204667;28;20226;-74
2022/10/30 02:44:23;;;;;;;10.03;6.67;;;;;;;14.20;95.76;101591.19;6213514;28;21232;-74
2022/10/30 02:47:44;;;;;;;8.93;6.33;;;;;;;14.10;96.00;101596.59;6216241;28;20255;-74
2022/10/30 02:51:05;;;;;;;8.20;5.60;;;;;;;14.21;95.35;101599.19;6227621;28;20248;-73
2022/10/30 02:54:28;;;;;;;15.00;5.57;;;;;;;14.12;95.69;101591.88;6210888;28;20236;-72
2022/10/30 02:57:48;;;;;;;10.17;4.97;;;;;;;14.13;95.90;101592.75;6234074;28;20235;-73
2022/10/30 03:01:12;;;;;;;7.47;6.00;;;;;;;14.13;95.65;101593.63;6226731;28;20236;-73
2022/10/30 03:04:32;;;;;;;9.87;6.63;;;;;;;14.20;95.60;101607.47;6211950;28;20233;-72
2022/10/30 03:07:54;;;;;;;7.87;4.67;;;;;;;14.28;95.08;101608.50;6226066;28;20228;-73
2022/10/30 03:11:19;;;;;;;7.43;4.57;;;;;;;14.14;95.35;101611.56;6225863;28;20236;-73
2022/10/30 03:14:40;;;;;;;9.17;5.00;;;;;;;13.99;95.51;101606.72;6211658;28;20874;-73
2022/10/30 03:18:01;;;;;;;5.80;4.67;;;;;;;14.01;95.50;101607.44;6215954;28;20701;-73
2022/10/30 03:21:24;;;;;;;10.53;5.00;;;;;;;14.04;95.37;101610.72;6226429;28;20236;-73
2022/10/30 03:24:45;;;;;;;6.47;4.87;;;;;;;14.12;94.88;101613.56;6215873;28;20649;-74
2022/10/30 03:28:07;;;;;;;8.63;5.50;;;;;;;14.21;94.47;101612.75;6238780;28;20227;-72
2022/10/30 03:31:30;;;;;;;5.23;4.17;;;;;;;14.19;94.02;101613.88;6229227;28;20734;-73
2022/10/30 03:35:10;;;;;;;10.07;5.50;;;;;;;14.20;94.39;101613.75;6220428;28;20229;-73
2022/10/30 03:38:31;;;;;;;10.57;6.80;;;;;;;14.20;93.98;101613.75;6217123;28;20229;-74
2022/10/30 03:41:52;;;;;;;8.23;4.40;;;;;;;14.33;93.74;101613.50;6216779;28;20231;-73
2022/10/30 03:45:14;;;;;;;7.00;5.67;;;;;;;14.26;93.63;101610.47;6219637;28;20629;-74
2022/10/30 03:48:35;;;;;;;4.83;4.33;;;;;;;14.20;93.58;101615.59;6215274;28;20232;-74
2022/10/30 03:51:56;;;;;;;6.70;4.60;;;;;;;14.26;93.78;101625.88;6207105;28;20809;-74
2022/10/30 03:55:19;;;;;;;6.40;5.80;;;;;;;14.16;93.30;101609.59;6221938;28;20605;-73
2022/10/30 03:58:40;;;;;;;10.40;5.93;;;;;;;14.07;93.87;101621.28;6217912;28;20874;-73
2022/10/30 04:02:05;;;;;;;10.13;7.40;;;;;;;14.04;94.10;101620.72;6206475;28;20232;-73
2022/10/30 04:05:27;;;;;;;43.97;23.37;;;;;;;14.15;93.98;101620.56;6222179;28;20312;-74
2022/10/30 04:08:50;;;;;;;73.10;39.83;;;;;;;14.14;93.57;101625.13;6221053;28;20510;-73
2022/10/30 04:12:11;;;;;;;42.77;24.43;;;;;;;14.17;93.36;101621.28;6213909;28;20233;-74
2022/10/30 04:15:32;;;;;;;14.97;8.67;;;;;;;13.96;93.81;101628.69;6208329;28;20225;-73
2022/10/30 04:18:54;;;;;;;14.83;8.40;;;;;;;14.09;93.84;101626.56;6209526;28;20253;-73
2022/10/30 04:22:15;;;;;;;12.40;8.60;;;;;;;14.12;93.69;101629.00;6223745;28;20228;-72
2022/10/30 04:25:36;;;;;;;12.40;7.27;;;;;;;14.06;93.39;101625.00;6218941;28;20252;-74
2022/10/30 04:28:57;;;;;;;7.37;5.67;;;;;;;14.07;93.43;101631.28;6214015;28;20227;-74
2022/10/30 04:32:19;;;;;;;8.53;5.60;;;;;;;14.08;92.69;101623.00;6218991;28;20274;-74
2022/10/30 04:35:42;;;;;;;7.00;5.50;;;;;;;14.03;92.79;101610.88;6220349;28;20224;-74
2022/10/30 04:39:06;;;;;;;10.90;5.87;;;;;;;13.99;92.97;101607.59;6216589;28;20227;-73
2022/10/30 04:42:29;;;;;;;9.27;6.10;;;;;;;14.03;92.76;101610.88;6215627;28;20818;-73
2022/10/30 04:45:50;;;;;;;5.77;5.17;;;;;;;13.95;92.46;101606.16;6217331;28;20269;-74
2022/10/30 04:49:10;;;;;;;10.17;5.10;;;;;;;13.79;93.47;101604.97;6226002;28;20617;-72
2022/10/30 04:52:33;;;;;;;4.23;3.57;;;;;;;13.78;93.99;101606.81;6213010;28;20318;-73
2022/10/30 04:55:54;;;;;;;9.13;5.70;;;;;;;13.82;93.93;101605.53;6228689;28;20260;-74
2022/10/30 04:59:15;;;;;;;7.30;5.73;;;;;;;13.81;93.67;101608.41;6222541;28;20228;-74
2022/10/30 05:02:37;;;;;;;6.03;4.30;;;;;;;13.92;93.34;101606.41;6201406;28;20227;-74
2022/10/30 05:06:00;;;;;;;7.93;4.10;;;;;;;13.91;93.24;101607.44;6218772;28;20241;-74
2022/10/30 05:09:23;;;;;;;7.77;4.37;;;;;;;13.90;93.32;101611.13;6214770;28;20225;-72
2022/10/30 05:12:45;;;;;;;5.83;5.03;;;;;;;13.78;93.73;101609.53;6205189;28;20236;-73
2022/10/30 05:16:07;;;;;;;5.20;4.70;;;;;;;13.82;93.57;101607.41;6222896;28;20259;-74
2022/10/30 05:19:28;;;;;;;8.10;4.73;;;;;;;13.84;93.63;101608.09;6198689;28;20319;-74
2022/10/30 05:22:55;;;;;;;4.77;4.23;;;;;;;13.86;93.46;101611.53;6212606;28;20225;-73
2022/10/30 05:26:18;;;;;;;8.27;3.97;;;;;;;13.82;93.12;101610.97;6221638;28;20814;-74
2022/10/30 05:29:38;;;;;;;4.80;4.40;;;;;;;13.86;93.09;101616.97;6222751;28;20232;-75
2022/10/30 05:33:00;;;;;;;6.77;4.63;;;;;;;13.89;92.98;101622.97;6217585;28;20350;-73
2022/10/30 05:36:21;;;;;;;6.80;3.70;;;;;;;13.89;92.76;101614.84;6219941;28;20229;-73
2022/10/30 05:39:42;;;;;;;5.93;4.47;;;;;;;13.87;92.87;101607.84;6198132;28;20244;-74
2022/10/30 05:43:13;;;;;;;5.37;4.10;;;;;;;13.85;92.83;101618.81;6230501;28;20632;-73
2022/10/30 05:46:34;;;;;;;6.13;3.80;;;;;;;13.70;92.96;101617.50;6236170;28;20566;-73
2022/10/30 05:50:13;;;;;;;7.80;4.23;;;;;;;13.67;92.97;101627.75;6223541;28;20224;-74
2022/10/30 05:53:48;;;;;;;3.97;3.50;;;;;;;13.69;93.64;101629.31;6222514;28;20236;-73
2022/10/30 05:57:09;;;;;;;6.27;4.20;;;;;;;13.62;93.17;101626.31;6216321;28;20236;-74
2022/10/30 06:00:35;;;;;;;7.00;4.27;;;;;;;13.60;93.10;101630.16;6222024;28;20224;-73
2022/10/30 06:03:57;;;;;;;6.17;3.97;;;;;;;13.62;93.19;101630.88;6226877;28;20227;-74
2022/10/30 06:07:18;;;;;;;7.07;4.70;;;;;;;13.58;93.03;101633.00;6209022;28;20322;-72
2022/10/30 06:10:39;;;;;;;6.20;4.40;;;;;;;13.55;93.23;101640.53;6217988;28;20244;-73
2022/10/30 06:14:12;;;;;;;6.83;3.87;;;;;;;13.43;93.79;101641.63;6221063;28;20232;-74
2022/10/30 06:17:47;;;;;;;5.60;4.30;;;;;;;13.50;93.60;101640.09;6209530;28;20245;-73
2022/10/30 06:21:31;;;;;;;4.67;3.50;;;;;;;13.43;93.63;101641.63;6229235;28;20251;-72
2022/10/30 06:25:06;;;;;;;7.23;4.20;;;;;;;13.50;93.37;101649.06;6219644;28;22160;-73
2022/10/30 06:28:44;;;;;;;6.27;3.73;;;;;;;13.47;93.43;101643.09;6203441;28;20743;-73
2022/10/30 06:32:07;;;;;;;5.33;3.60;;;;;;;13.52;93.09;101654.34;6222682;28;20819;-73
2022/10/30 06:35:30;;;;;;;5.33;3.93;;;;;;;13.56;93.37;101655.78;6215313;28;20311;-73
2022/10/30 06:38:50;;;;;;;4.97;4.17;;;;;;;13.55;92.83;101656.81;6216131;28;20770;-73
2022/10/30 06:42:13;;;;;;;4.27;3.87;;;;;;;13.63;92.76;101651.56;6215025;28;20245;-73
2022/10/30 06:45:53;;;;;;;9.13;3.90;;;;;;;13.60;92.54;101655.38;6225768;28;20240;-73
2022/10/30 06:49:13;;;;;;;5.93;4.10;;;;;;;13.58;92.60;101656.50;6206477;28;20567;-73
2022/10/30 06:52:36;;;;;;;4.73;3.80;;;;;;;13.71;92.50;101662.56;6210513;28;20231;-74
2022/10/30 06:55:59;;;;;;;5.47;4.47;;;;;;;13.71;91.96;101667.13;6216865;28;20509;-73
2022/10/30 06:59:42;;;;;;;4.57;3.40;;;;;;;13.53;92.63;101670.50;6224385;28;20248;-74
2022/10/30 07:03:33;;;;;;;9.33;4.80;;;;;;;13.66;92.46;101674.81;6175977;28;20236;-73
2022/10/30 07:06:53;;;;;;;5.27;4.10;;;;;;;13.78;91.87;101669.16;6225650;28;20236;-73
2022/10/30 07:10:17;;;;;;;4.10;3.60;;;;;;;13.79;91.85;101675.44;6226025;28;20237;-73
2022/10/30 07:14:14;;;;;;;7.00;4.47;;;;;;;13.98;91.28;101679.06;6232843;28;20220;-74
2022/10/30 07:17:53;;;;;;;8.00;4.10;;;;;;;13.91;91.13;101674.34;6214124;28;20227;-74
2022/10/30 07:21:16;;;;;;;8.00;4.00;;;;;;;13.75;91.67;101677.56;6225613;28;20814;-74
2022/10/30 07:24:37;;;;;;;8.30;3.77;;;;;;;13.94;91.42;101674.91;6207893;28;20237;-73
2022/10/30 07:28:20;;;;;;;5.87;3.53;;;;;;;14.09;90.50;101678.94;6207050;28;20254;-74
2022/10/30 07:31:58;;;;;;;7.43;5.07;;;;;;;13.88;91.35;101691.72;6209701;28;20233;-78
2022/10/30 07:35:24;;;;;;;5.93;3.30;;;;;;;14.10;90.86;101687.94;6220320;28;20262;-76
2022/10/30 07:38:52;;;;;;;14.13;4.73;;;;;;;14.28;89.53;101692.59;6226032;28;20232;-77
2022/10/30 07:42:22;;;;;;;6.93;4.13;;;;;;;14.06;90.19;101691.94;6200213;28;20266;-74
2022/10/30 07:46:22;;;;;;;6.30;4.47;;;;;;;14.34;89.51;101699.31;6169176;28;20797;-77
2022/10/30 07:50:14;;;;;;;5.23;3.40;;;;;;;14.50;88.00;101704.19;6182037;28;20225;-74
2022/10/30 07:53:34;;;;;;;5.20;3.50;;;;;;;14.76;87.67;101691.75;6213917;28;20993;-75
2022/10/30 07:56:57;;;;;;;6.57;3.53;;;;;;;14.87;87.17;101699.78;6223052;28;20229;-75
2022/10/30 08:00:29;;;;;;;7.57;4.77;;;;;;;15.30;85.62;101702.84;6228357;28;20761;-76
2022/10/30 08:04:01;;;;;;;8.53;4.47;;;;;;;15.23;85.25;101706.31;6211628;28;20239;-76
2022/10/30 08:07:23;;;;;;;8.03;4.93;;;;;;;15.37;84.62;101704.00;6218449;28;20731;-78
2022/10/30 08:10:44;;;;;;;7.97;4.80;;;;;;;15.44;85.03;101707.84;6220397;28;20240;-73
2022/10/30 08:14:05;;;;;;;6.00;4.93;;;;;;;15.95;83.11;101710.97;6216247;28;20838;-73
2022/10/30 08:17:26;;;;;;;4.87;3.63;;;;;;;16.20;81.96;101708.53;6212110;28;20920;-75
2022/10/30 08:20:50;;;;;;;7.13;3.97;;;;;;;16.05;82.41;101704.59;6220123;28;20323;-75
2022/10/30 08:24:11;;;;;;;11.90;4.27;;;;;;;16.06;82.15;101707.19;6219635;28;20240;-75
2022/10/30 08:27:35;;;;;;;4.93;3.95;;;;;;;16.41;81.29;101700.97;6223634;28;20251;-76
2022/10/30 08:30:58;;;;;;;10.30;4.03;;;;;;;16.48;81.08;101707.50;6237128;28;20233;-74
2022/10/30 08:34:36;;;;;;;11.80;7.57;;;;;;;16.54;81.14;101706.91;6207952;28;20228;-73
2022/10/30 08:38:02;;;;;;;13.17;7.67;;;;;;;16.38;81.22;101706.69;6218681;28;20236;-74
2022/10/30 08:41:24;;;;;;;10.98;6.47;;;;;;;16.77;79.93;101713.63;6227800;28;20232;-79
2022/10/30 08:44:46;;;;;;;59.05;54.53;;;;;;;17.17;81.33;101713.97;6233249;28;20228;-73
2022/10/30 08:48:11;;;;;;;44.13;39.63;;;;;;;17.58;78.40;101709.69;6210776;28;20232;-72
2022/10/30 08:51:35;;;;;;;16.45;11.35;;;;;;;17.76;75.98;101717.81;6231909;28;20572;-74
2022/10/30 08:54:57;;;;;;;6.13;4.45;;;;;;;18.47;73.83;101708.25;6193845;28;20244;-76
2022/10/30 08:58:20;;;;;;;6.50;4.63;;;;;;;19.06;72.11;101707.13;6224007;28;20236;-76
2022/10/30 09:01:42;;;;;;;8.98;4.72;;;;;;;19.64;68.00;101712.38;6219679;28;20224;-76
2022/10/30 09:05:15;;;;;;;4.85;3.95;;;;;;;21.04;62.52;101719.59;6224321;28;20664;-75
2022/10/30 09:09:04;;;;;;;6.70;3.88;;;;;;;21.90;59.95;101711.78;6213364;28;20240;-76
2022/10/30 09:12:42;;;;;;;10.70;5.20;;;;;;;21.87;59.04;101721.22;6219201;28;20227;-75
2022/10/30 09:16:03;;;;;;;8.27;5.10;;;;;;;23.48;55.07;101709.78;6198434;28;20229;-75
2022/10/30 09:19:27;;;;;;;12.40;5.43;;;;;;;23.74;53.90;101709.97;6225356;28;20241;-76
2022/10/30 09:22:48;;;;;;;5.32;4.32;;;;;;;23.79;53.08;101710.22;6219968;28;20247;-77
2022/10/30 09:26:10;;;;;;;10.23;5.35;;;;;;;23.64;53.14;101712.22;6218214;28;20232;-77
2022/10/30 09:29:45;;;;;;;11.65;4.55;;;;;;;24.70;50.76;101711.75;6216687;28;20236;-76
2022/10/30 09:33:15;;;;;;;5.57;4.53;;;;;;;25.37;49.25;101710.59;6226877;28;20231;-76
2022/10/30 09:36:59;;;;;;;8.27;5.13;;;;;;;25.61;48.28;101711.88;6220923;28;20248;-76
2022/10/30 09:40:24;;;;;;;9.65;5.70;;;;;;;27.28;45.27;101705.22;6226623;28;20228;-76
2022/10/30 09:44:04;;;;;;;8.70;4.93;;;;;;;25.01;48.74;101706.53;6239444;28;20232;-77
2022/10/30 09:47:35;;;;;;;6.85;5.00;;;;;;;27.56;43.45;101705.63;6229343;28;20239;-77
2022/10/30 09:51:16;;;;;;;6.80;5.50;;;;;;;26.48;46.12;101716.97;6225593;28;20228;-75
2022/10/30 09:54:50;;;;;;;6.10;4.82;;;;;;;26.19;46.05;101718.38;6220582;28;20225;-77
2022/10/30 09:58:21;;;;;;;15.40;5.18;;;;;;;25.88;46.83;101709.91;6205299;28;20223;-77
2022/10/30 10:01:49;;;;;;;9.13;4.95;;;;;;;27.28;43.57;101710.75;6226528;28;20221;-77
2022/10/30 10:05:17;;;;;;;11.15;4.90;;;;;;;26.95;44.12;101707.38;6241035;28;20233;-77
2022/10/30 10:09:04;;;;;;;9.73;6.18;;;;;;;25.74;46.46;101709.09;6239860;28;20251;-77
2022/10/30 10:12:46;;;;;;;7.85;5.55;;;;;;;27.79;43.03;101705.00;6230043;28;20220;-79
2022/10/30 10:16:14;;;;;;;7.22;5.28;;;;;;;26.97;44.87;101696.94;6239558;28;20259;-79
2022/10/30 10:19:38;;;;;;;13.98;5.25;;;;;;;27.46;42.75;101705.28;6245347;28;20543;-79
2022/10/30 10:23:11;;;;;;;5.40;4.60;;;;;;;27.31;43.87;101702.84;6233605;28;20257;-81
2022/10/30 10:26:47;;;;;;;9.07;4.32;;;;;;;26.34;45.66;101699.59;6216049;28;20651;-78
2022/10/30 10:30:10;;;;;;;11.10;6.75;;;;;;;27.29;43.52;101687.50;6233115;28;20237;-78
2022/10/30 10:33:49;;;;;;;4.90;4.47;;;;;;;30.93;37.68;101692.31;6233942;28;20251;-71
2022/10/30 10:37:22;;;;;;;7.90;5.03;;;;;;;30.38;37.45;101683.66;6221943;28;20583;-68
2022/10/30 10:40:56;;;;;;;7.32;5.20;;;;;;;27.68;42.29;101687.19;6229232;28;20228;-67
2022/10/30 10:44:30;;;;;;;8.07;4.85;;;;;;;27.30;43.80;101679.00;6237746;28;20228;-69
2022/10/30 10:48:17;;;;;;;11.50;4.97;;;;;;;31.20;36.21;101679.41;6226171;28;20797;-68
2022/10/30 10:51:40;;;;;;;13.63;5.13;;;;;;;30.73;36.60;101664.88;6217097;28;20252;-68
2022/10/30 10:55:09;;;;;;;11.27;5.55;;;;;;;31.01;35.94;101674.31;6229009;28;20485;-73
2022/10/30 10:58:38;;;;;;;7.47;3.58;;;;;;;31.98;34.06;101681.25;6228649;28;20227;-76
2022/10/30 11:02:13;;;;;;;15.00;5.20;;;;;;;26.56;44.47;101678.84;6215154;28;20483;-75
2022/10/30 11:05:38;;;;;;;14.88;5.25;;;;;;;31.40;35.78;101665.84;6213273;28;20623;-74
2022/10/30 11:09:12;;;;;;;8.48;4.47;;;;;;;29.05;39.43;101670.69;6222408;28;20259;-74
2022/10/30 11:12:36;;;;;;;5.68;4.05;;;;;;;30.86;36.58;101668.47;6222342;28;20224;-75
2022/10/30 11:16:07;;;;;;;11.20;4.30;;;;;;;31.40;35.27;101667.75;6237404;28;20228;-74
2022/10/30 11:19:30;;;;;;;8.45;4.25;;;;;;;31.36;36.19;101674.91;6233470;28;20251;-73
2022/10/30 11:22:51;;;;;;;4.97;3.80;;;;;;;31.20;35.00;101676.63;6226869;28;20244;-74
2022/10/30 11:26:27;;;;;;;8.38;4.75;;;;;;;32.73;33.38;101665.44;6236289;28;20447;-74
2022/10/30 11:29:52;;;;;;;8.48;5.05;;;;;;;30.81;36.08;101671.13;6235424;28;20228;-74
2022/10/30 11:33:23;;;;;;;5.22;3.95;;;;;;;31.43;35.05;101678.44;6228601;28;21039;-73
2022/10/30 11:36:44;;;;;;;8.68;6.95;;;;;;;31.01;36.55;101677.09;6237492;28;20236;-73
2022/10/30 11:40:07;;;;;;;5.70;4.05;;;;;;;30.49;37.36;101676.38;6229992;28;20683;-74
2022/10/30 11:43:28;;;;;;;10.32;4.72;;;;;;;30.05;37.48;101677.91;6236912;28;20521;-74
2022/10/30 11:46:49;;;;;;;11.95;5.35;;;;;;;31.33;35.97;101673.47;6232207;28;20228;-74
2022/10/30 11:50:19;;;;;;;8.88;4.93;;;;;;;33.47;31.55;101673.97;6232619;28;20255;-74
2022/10/30 11:53:47;;;;;;;14.20;5.40;;;;;;;33.59;31.99;101663.44;6232011;28;20247;-74
2022/10/30 11:57:20;;;;;;;6.40;4.60;;;;;;;31.99;33.39;101671.75;6223433;28;20524;-74
2022/10/30 12:00:43;;;;;;;10.38;4.75;;;;;;;31.84;34.29;101666.78;6237917;28;20247;-74
2022/10/30 12:04:14;;;;;;;6.03;4.20;;;;;;;32.56;33.43;101664.72;6237643;28;20232;-74
2022/10/30 12:07:38;;;;;;;6.13;3.90;;;;;;;32.16;34.43;101655.81;6225779;28;20227;-73
2022/10/30 12:11:02;;;;;;;8.80;4.35;;;;;;;31.06;36.00;101650.19;6235223;28;20232;-74
2022/10/30 12:14:26;;;;;;;7.93;4.38;;;;;;;28.97;40.12;101652.47;6237250;28;20228;-73
2022/10/30 12:17:52;;;;;;;5.22;3.63;;;;;;;28.17;42.08;101656.56;6222914;28;20224;-72
2022/10/30 12:21:18;;;;;;;9.75;3.85;;;;;;;27.07;44.48;101652.97;6232566;28;20252;-73
2022/10/30 12:24:44;;;;;;;6.30;3.92;;;;;;;26.27;46.96;101670.25;6233645;28;20602;-73
2022/10/30 12:28:12;;;;;;;9.95;5.25;;;;;;;26.21;47.78;101663.69;6233689;28;20228;-73
2022/10/30 12:31:38;;;;;;;7.63;5.30;;;;;;;26.19;47.98;101663.06;6233518;28;20228;-73
2022/10/30 12:35:04;;;;;;;12.48;5.25;;;;;;;24.79;51.13;101678.25;6233652;28;20292;-74
2022/10/30 12:38:32;;;;;;;6.72;4.15;;;;;;;24.99;50.81;101670.84;6228999;28;20227;-74
2022/10/30 12:42:00;;;;;;;6.25;4.20;;;;;;;24.76;51.99;101664.03;6231186;28;20228;-74
2022/10/30 12:45:26;;;;;;;10.13;4.90;;;;;;;25.08;51.44;101664.06;6231748;28;20236;-73
2022/10/30 12:48:53;;;;;;;6.72;3.83;;;;;;;24.36;53.20;101658.41;6233979;28;20224;-73
2022/10/30 12:52:19;;;;;;;12.32;5.75;;;;;;;24.51;53.36;101655.47;6222035;28;22379;-73
2022/10/30 12:55:43;;;;;;;13.13;4.80;;;;;;;24.76;52.64;101658.53;6242703;28;20228;-74
2022/10/30 12:59:20;;;;;;;9.98;5.80;;;;;;;24.79;52.85;101666.38;6231724;28;20224;-71
2022/10/30 13:02:53;;;;;;;9.50;5.97;;;;;;;25.18;51.86;101656.22;6225140;28;20625;-73
2022/10/30 13:06:18;;;;;;;9.45;4.82;;;;;;;25.18;51.29;101650.69;6234105;28;20271;-74
2022/10/30 13:09:46;;;;;;;9.32;4.30;;;;;;;25.43;50.96;101653.66;6230010;28;20402;-73
2022/10/30 13:13:13;;;;;;;5.53;4.20;;;;;;;24.64;52.66;101652.72;6227212;28;20326;-73
2022/10/30 13:16:35;;;;;;;7.78;3.70;;;;;;;24.36;53.37;101647.38;6233430;28;20224;-73
2022/10/30 13:19:56;;;;;;;8.50;3.75;;;;;;;23.79;54.74;101649.63;6222942;28;20244;-73
2022/10/30 13:23:23;;;;;;;9.75;4.80;;;;;;;23.94;54.87;101649.50;6233177;28;20235;-74
2022/10/30 13:26:50;;;;;;;5.13;3.88;;;;;;;23.60;56.10;101650.34;6230392;28;20217;-73
2022/10/30 13:30:15;;;;;;;8.90;3.97;;;;;;;23.45;56.62;101652.34;6230017;28;20236;-74
2022/10/30 13:33:42;;;;;;;6.45;3.72;;;;;;;23.62;55.92;101657.38;6234710;28;20319;-73
2022/10/30 13:37:08;;;;;;;11.95;4.05;;;;;;;23.38;56.83;101656.97;6220155;28;20220;-74
2022/10/30 13:40:35;;;;;;;7.18;3.85;;;;;;;23.14;57.46;101657.38;6237014;28;20232;-73
2022/10/30 13:44:04;;;;;;;6.28;4.45;;;;;;;23.18;57.99;101654.03;6242868;28;20231;-73
2022/10/30 13:47:38;;;;;;;8.00;4.32;;;;;;;23.24;58.03;101653.22;6240129;28;20242;-73
2022/10/30 13:51:19;;;;;;;5.43;4.53;;;;;;;23.07;57.96;101646.34;6242005;28;20600;-74
2022/10/30 13:54:44;;;;;;;7.38;4.07;;;;;;;23.22;58.39;101643.50;6237921;28;20236;-74
2022/10/30 13:58:12;;;;;;;9.25;4.60;;;;;;;23.00;58.29;101649.03;6232810;28;20223;-73
2022/10/30 14:01:38;;;;;;;7.32;4.72;;;;;;;23.02;58.61;101643.31;6240005;28;20636;-74
2022/10/30 14:05:13;;;;;;;7.25;4.35;;;;;;;23.16;58.89;101636.00;6219207;28;20228;-73
2022/10/30 14:08:42;;;;;;;8.40;4.97;;;;;;;23.72;57.21;101641.31;6221862;28;20678;-74
2022/10/30 14:12:36;;;;;;;7.68;5.15;;;;;;;24.98;53.86;101640.72;6212010;28;21182;-74
2022/10/30 14:16:01;;;;;;;9.13;4.57;;;;;;;25.59;51.63;101628.38;6222772;28;20236;-76
2022/10/30 14:19:22;;;;;;;10.27;4.57;;;;;;;25.39;51.59;101638.56;6237975;28;20315;-74
2022/10/30 14:22:43;;;;;;;9.57;4.70;;;;;;;25.76;50.70;101637.06;6223086;28;20255;-75
2022/10/30 14:26:20;;;;;;;5.88;4.05;;;;;;;24.54;53.52;101639.34;6244125;28;20224;-74
2022/10/30 14:29:47;;;;;;;6.10;3.97;;;;;;;24.09;55.39;101644.72;6218065;28;20259;-74
2022/10/30 14:33:42;;;;;;;7.13;4.47;;;;;;;23.50;56.97;101642.47;6237789;28;20515;-74
2022/10/30 14:37:03;;;;;;;8.05;4.75;;;;;;;22.84;59.88;101643.78;6222712;28;20228;-74
2022/10/30 14:40:40;;;;;;;6.75;3.47;;;;;;;22.60;61.07;101662.59;6242832;28;20652;-75
2022/10/30 14:44:27;;;;;;;7.45;3.90;;;;;;;22.25;62.53;101650.53;6235534;28;20236;-74
2022/10/30 14:47:56;;;;;;;7.18;4.15;;;;;;;22.06;62.71;101651.13;6222226;28;20243;-74
2022/10/30 14:51:22;;;;;;;4.72;4.32;;;;;;;21.99;63.40;101645.56;6229301;28;21974;-73
2022/10/30 14:54:51;;;;;;;11.63;4.65;;;;;;;21.80;64.09;101646.09;6236332;28;20220;-73
2022/10/30 14:58:19;;;;;;;7.38;4.25;;;;;;;21.64;65.72;101639.97;6236851;28;20227;-72
2022/10/30 15:01:51;;;;;;;6.15;3.45;;;;;;;21.47;65.70;101637.41;6239217;28;20219;-70
2022/10/30 15:05:37;;;;;;;8.88;4.68;;;;;;;21.40;66.33;101638.38;6233472;28;20614;-73
2022/10/30 15:09:14;;;;;;;7.90;6.18;;;;;;;21.21;66.25;101628.78;6236319;28;20228;-74
2022/10/30 15:12:49;;;;;;;6.05;4.57;;;;;;;21.12;66.98;101629.03;6229215;28;20227;-72
2022/10/30 15:16:15;;;;;;;9.75;4.40;;;;;;;21.07;67.51;101626.03;6234365;28;20236;-73
2022/10/30 15:19:37;;;;;;;8.52;4.38;;;;;;;20.93;68.01;101626.78;6234461;28;20237;-74
2022/10/30 15:23:01;;;;;;;5.45;3.88;;;;;;;20.79;68.23;101627.59;6230059;28;20239;-73
2022/10/30 15:26:26;;;;;;;10.60;8.05;;;;;;;20.62;69.91;101633.22;6233302;28;20750;-73
2022/10/30 15:29:51;;;;;;;12.52;6.82;;;;;;;20.51;69.72;101630.03;6233467;28;20256;-73
2022/10/30 15:33:21;;;;;;;5.63;4.07;;;;;;;20.39;69.99;101632.34;6226813;28;20231;-73
2022/10/30 15:36:43;;;;;;;8.27;3.47;;;;;;;20.29;70.76;101630.88;6221567;28;20931;-72
2022/10/30 15:40:16;;;;;;;9.88;4.35;;;;;;;20.14;70.60;101624.41;6226940;28;20241;-73
2022/10/30 15:43:42;;;;;;;8.55;4.53;;;;;;;20.00;71.19;101634.28;6233862;28;20224;-74
2022/10/30 15:47:10;;;;;;;6.40;4.53;;;;;;;19.99;71.34;101627.06;6210789;28;20236;-73
2022/10/30 15:50:32;;;;;;;9.15;4.55;;;;;;;19.90;72.11;101637.19;6224652;28;20240;-75
2022/10/30 15:53:57;;;;;;;7.38;4.55;;;;;;;19.69;72.86;101633.38;6226746;28;20220;-74
2022/10/30 15:57:26;;;;;;;5.93;3.97;;;;;;;19.65;72.92;101624.66;6220307;28;20502;-75
2022/10/30 16:00:56;;;;;;;8.55;5.50;;;;;;;19.56;73.02;101630.34;6233801;28;20236;-75